Time;durP1;ratioP1;P1;durP2;ratioP2;P2;SDS_P1;SDS_P2;PMS_P1;PMS_P2;Temp;Humidity;BMP_temperature;BMP_pressure;BME280_temperature;BME280_humidity;BME280_pressure;Samples;Min_cycle;Max_cycle;Signal;HPM_P1;HPM_P2
2023/10/14 00:02:26;;;;;;;17.27;5.10;;;;;;;;;;5040596;28;20045;-67
2023/10/14 00:04:53;;;;;;;10.95;5.05;;;;;;;;;;5037362;28;20528;-68
2023/10/14 00:07:24;;;;;;;17.85;6.70;;;;;;;;;;5036775;28;20048;-69
2023/10/14 00:09:51;;;;;;;13.82;4.88;;;;;;;;;;5038940;28;20050;-68
2023/10/14 00:12:20;;;;;;;13.15;5.18;;;;;;;;;;5050520;28;20052;-68
2023/10/14 00:14:48;;;;;;;15.48;5.30;;;;;;;;;;5051110;28;20466;-67
2023/10/14 00:17:17;;;;;;;8.85;4.82;;;;;;;;;;5047909;28;20067;-67
2023/10/14 00:19:54;;;;;;;14.07;4.22;;;;;;;;;;5046410;28;20041;-67
2023/10/14 00:22:20;;;;;;;20.38;5.47;;;;;;;;;;5050775;28;20049;-68
2023/10/14 00:24:48;;;;;;;12.20;5.25;;;;;;;;;;5051413;28;20056;-69
2023/10/14 00:27:15;;;;;;;14.40;4.55;;;;;;;;;;5041484;28;20060;-69
2023/10/14 00:29:42;;;;;;;11.27;4.13;;;;;;;;;;5047479;28;20106;-69
2023/10/14 00:32:08;;;;;;;11.35;4.20;;;;;;;;;;5046315;28;20516;-69
2023/10/14 00:34:35;;;;;;;8.00;3.17;;;;;;;;;;5051007;28;20553;-70
2023/10/14 00:37:01;;;;;;;14.60;5.35;;;;;;;;;;5034509;28;20053;-70
2023/10/14 00:39:28;;;;;;;8.27;3.45;;;;;;;;;;5047607;28;20080;-69
2023/10/14 00:41:55;;;;;;;15.02;5.05;;;;;;;;;;5051334;28;20567;-71
2023/10/14 00:44:24;;;;;;;14.35;3.95;;;;;;;;;;5049209;28;20555;-71
2023/10/14 00:46:51;;;;;;;10.93;4.30;;;;;;;;;;5044825;28;20059;-70
2023/10/14 00:49:18;;;;;;;12.85;5.00;;;;;;;;;;5050524;28;20421;-71
2023/10/14 00:51:49;;;;;;;9.60;4.55;;;;;;;;;;5049462;28;20132;-70
2023/10/14 00:57:10;;;;;;;15.48;4.63;;;;;;;;;;5047499;28;20072;-70
2023/10/14 00:59:37;;;;;;;9.93;3.58;;;;;;;;;;5050804;28;20127;-70
2023/10/14 01:02:07;;;;;;;13.60;4.68;;;;;;;;;;5051031;28;20059;-72
2023/10/14 01:04:34;;;;;;;15.85;4.40;;;;;;;;;;5032835;28;20053;-70
2023/10/14 01:07:12;;;;;;;10.85;5.13;;;;;;;;;;5049271;28;20481;-70
2023/10/14 01:12:16;;;;;;;13.50;3.83;;;;;;;;;;5046467;28;20057;-72
2023/10/14 01:14:44;;;;;;;21.00;11.77;;;;;;;;;;5029117;28;20414;-70
2023/10/14 01:17:21;;;;;;;15.65;5.00;;;;;;;;;;5053071;28;20107;-70
2023/10/14 01:19:47;;;;;;;9.98;3.80;;;;;;;;;;5051102;28;20049;-72
2023/10/14 01:22:14;;;;;;;15.82;4.95;;;;;;;;;;5037664;28;20061;-72
2023/10/14 01:24:41;;;;;;;12.48;5.28;;;;;;;;;;5049219;28;20558;-69
2023/10/14 01:27:10;;;;;;;11.30;4.13;;;;;;;;;;5050334;28;20045;-69
2023/10/14 01:29:41;;;;;;;11.70;3.75;;;;;;;;;;5050425;28;20071;-69
2023/10/14 01:35:12;;;;;;;9.43;4.50;;;;;;;;;;5049028;28;20056;-71
2023/10/14 01:37:40;;;;;;;17.67;4.55;;;;;;;;;;5050252;28;20136;-72
2023/10/14 01:42:58;;;;;;;14.50;4.80;;;;;;;;;;5039231;28;20053;-71
2023/10/14 01:46:11;;;;;;;8.65;4.07;;;;;;;;;;5050237;28;20053;-71
2023/10/14 01:48:12;;;;;;;14.18;4.45;;;;;;;;;;5036712;28;20828;-72
2023/10/14 01:50:46;;;;;;;11.13;4.70;;;;;;;;;;5039762;28;20514;-71
2023/10/14 01:53:21;;;;;;;9.38;4.57;;;;;;;;;;5049427;28;20581;-71
2023/10/14 01:55:47;;;;;;;10.40;4.13;;;;;;;;;;5049949;28;20548;-71
2023/10/14 01:58:29;;;;;;;16.85;4.80;;;;;;;;;;5041255;28;20053;-71
2023/10/14 02:03:44;;;;;;;17.15;4.80;;;;;;;;;;5049661;28;20049;-71
2023/10/14 02:06:16;;;;;;;6.60;3.60;;;;;;;;;;5049645;28;20095;-71
2023/10/14 02:08:44;;;;;;;14.38;4.10;;;;;;;;;;5029701;28;20052;-71
2023/10/14 02:11:11;;;;;;;16.17;4.78;;;;;;;;;;5047353;28;20215;-71
2023/10/14 02:13:37;;;;;;;10.20;4.32;;;;;;;;;;5049148;28;20565;-71
2023/10/14 02:16:07;;;;;;;8.98;4.00;;;;;;;;;;5043633;28;20103;-71
2023/10/14 02:18:37;;;;;;;11.23;5.17;;;;;;;;;;5043764;28;20045;-71
2023/10/14 02:21:05;;;;;;;12.77;4.28;;;;;;;;;;5047875;28;20037;-71
2023/10/14 02:23:43;;;;;;;13.73;4.07;;;;;;;;;;5047897;28;20407;-71
2023/10/14 02:26:30;;;;;;;11.45;4.18;;;;;;;;;;5034150;28;20053;-72
2023/10/14 02:28:57;;;;;;;11.27;4.93;;;;;;;;;;5033270;28;20045;-71
2023/10/14 02:34:00;;;;;;;16.00;3.90;;;;;;;;;;5039175;28;20132;-70
2023/10/14 02:36:29;;;;;;;15.40;4.78;;;;;;;;;;5044070;28;20126;-69
2023/10/14 02:38:56;;;;;;;9.57;4.43;;;;;;;;;;5047405;28;20044;-70
2023/10/14 02:41:29;;;;;;;8.45;4.35;;;;;;;;;;5048607;28;20053;-69
2023/10/14 02:46:43;;;;;;;16.38;4.20;;;;;;;;;;5034046;28;20072;-69
2023/10/14 02:49:13;;;;;;;13.38;3.85;;;;;;;;;;5048503;28;20049;-69
2023/10/14 02:51:44;;;;;;;11.43;3.65;;;;;;;;;;5048789;28;20056;-69
2023/10/14 02:59:45;;;;;;;10.55;4.68;;;;;;;;;;5005859;28;20081;-69
2023/10/14 03:02:15;;;;;;;13.45;5.47;;;;;;;;;;5015051;28;20045;-69
2023/10/14 03:07:21;;;;;;;11.07;3.88;;;;;;;;;;5048535;28;20073;-70
2023/10/14 03:09:48;;;;;;;8.70;4.18;;;;;;;;;;5048383;28;20707;-71
2023/10/14 03:12:18;;;;;;;15.10;4.63;;;;;;;;;;5038173;28;20056;-71
2023/10/14 03:14:48;;;;;;;9.35;3.95;;;;;;;;;;5046711;28;20593;-70
2023/10/14 03:17:21;;;;;;;16.05;5.13;;;;;;;;;;5047664;28;20071;-70
2023/10/14 03:19:53;;;;;;;19.77;4.32;;;;;;;;;;5043327;28;20077;-70
2023/10/14 03:22:22;;;;;;;13.68;5.80;;;;;;;;;;5046881;28;20556;-69
2023/10/14 03:24:50;;;;;;;14.30;5.20;;;;;;;;;;5047969;28;20084;-70
2023/10/14 03:27:20;;;;;;;15.63;5.32;;;;;;;;;;5047836;28;20058;-70
2023/10/14 03:29:57;;;;;;;15.30;5.68;;;;;;;;;;5036085;28;20124;-69
2023/10/14 03:32:32;;;;;;;14.63;4.47;;;;;;;;;;5027375;28;20107;-70
2023/10/14 03:35:00;;;;;;;14.02;4.80;;;;;;;;;;5046105;28;20041;-69
2023/10/14 03:37:26;;;;;;;13.48;5.85;;;;;;;;;;5047625;28;20128;-69
2023/10/14 03:42:51;;;;;;;13.48;4.88;;;;;;;;;;5047926;28;20057;-69
2023/10/14 03:45:22;;;;;;;13.55;4.40;;;;;;;;;;5048057;28;20095;-71
2023/10/14 03:47:52;;;;;;;18.30;4.60;;;;;;;;;;5037368;28;20041;-71
2023/10/14 03:50:25;;;;;;;;;;;;;;;;;;5041959;28;20053;-69
2023/10/14 03:52:53;;;;;;;10.63;5.72;;;;;;;;;;5034113;28;19924;-71
2023/10/14 03:55:26;;;;;;;13.18;5.00;;;;;;;;;;5047379;28;20049;-71
2023/10/14 03:58:01;;;;;;;15.27;4.97;;;;;;;;;;5046904;28;20045;-69
2023/10/14 04:00:36;;;;;;;12.23;5.00;;;;;;;;;;5036533;28;20057;-69
2023/10/14 04:03:34;;;;;;;19.55;5.03;;;;;;;;;;5035933;28;20052;-71
2023/10/14 04:05:59;;;;;;;13.90;5.03;;;;;;;;;;5047249;28;20060;-71
2023/10/14 04:08:33;;;;;;;18.23;5.85;;;;;;;;;;5046350;28;20118;-71
2023/10/14 04:11:25;;;;;;;10.48;4.18;;;;;;;;;;5038827;28;20057;-71
2023/10/14 04:16:28;;;;;;;16.00;4.80;;;;;;;;;;5048057;28;20080;-69
2023/10/14 04:19:44;;;;;;;10.35;4.85;;;;;;;;;;5036215;28;20476;-71
2023/10/14 04:21:50;;;;;;;10.05;5.57;;;;;;;;;;5025868;28;20046;-71
2023/10/14 04:27:05;;;;;;;20.40;5.20;;;;;;;;;;5026805;28;20046;-71
2023/10/14 04:29:39;;;;;;;13.32;5.93;;;;;;;;;;5030319;28;20044;-71
2023/10/14 04:32:14;;;;;;;15.68;5.35;;;;;;;;;;5046091;28;20470;-70
2023/10/14 04:34:42;;;;;;;11.43;4.80;;;;;;;;;;5047245;28;20045;-71
2023/10/14 04:37:08;;;;;;;15.88;5.03;;;;;;;;;;5037259;28;20514;-71
2023/10/14 04:39:42;;;;;;;15.05;5.40;;;;;;;;;;5047313;28;20123;-69
2023/10/14 04:44:45;;;;;;;13.38;4.60;;;;;;;;;;5050833;28;20521;-70
2023/10/14 04:47:19;;;;;;;17.88;6.28;;;;;;;;;;5035512;28;20045;-70
2023/10/14 04:49:51;;;;;;;9.55;5.22;;;;;;;;;;5050452;28;20057;-69
2023/10/14 04:52:18;;;;;;;23.00;6.28;;;;;;;;;;5050981;28;20088;-66
2023/10/14 04:55:08;;;;;;;17.67;7.18;;;;;;;;;;5043553;28;20126;-67
2023/10/14 04:57:40;;;;;;;24.85;7.63;;;;;;;;;;5040880;28;20057;-68
2023/10/14 05:00:19;;;;;;;16.90;7.15;;;;;;;;;;5031131;28;20049;-68
2023/10/14 05:02:46;;;;;;;20.55;7.55;;;;;;;;;;5035498;28;20128;-68
2023/10/14 05:05:18;;;;;;;14.90;7.32;;;;;;;;;;5041217;28;20049;-68
2023/10/14 05:07:45;;;;;;;14.13;6.82;;;;;;;;;;5050200;28;20306;-68
2023/10/14 05:10:12;;;;;;;15.45;6.47;;;;;;;;;;5050777;28;20076;-68
2023/10/14 05:12:43;;;;;;;21.25;6.25;;;;;;;;;;5047232;28;20133;-68
2023/10/14 05:15:25;;;;;;;19.80;6.13;;;;;;;;;;5040506;28;20048;-68
2023/10/14 05:18:00;;;;;;;14.38;5.70;;;;;;;;;;5050842;28;20128;-68
2023/10/14 05:21:34;;;;;;;11.93;6.50;;;;;;;;;;5050581;28;20060;-68
2023/10/14 05:23:19;;;;;;;11.18;6.32;;;;;;;;;;5026040;28;20049;-68
2023/10/14 05:25:48;;;;;;;21.38;6.07;;;;;;;;;;5046934;28;20045;-68
2023/10/14 05:28:16;;;;;;;20.40;5.90;;;;;;;;;;5050439;28;20110;-68
2023/10/14 05:30:47;;;;;;;12.45;4.30;;;;;;;;;;5039239;28;20449;-68
2023/10/14 05:33:14;;;;;;;8.32;3.75;;;;;;;;;;5044390;28;20157;-66
2023/10/14 05:35:41;;;;;;;15.57;3.47;;;;;;;;;;5048847;28;20132;-65
2023/10/14 05:38:10;;;;;;;10.00;3.60;;;;;;;;;;5050282;28;20281;-71
2023/10/14 05:40:37;;;;;;;9.25;3.25;;;;;;;;;;5041945;28;20045;-66
2023/10/14 05:43:06;;;;;;;6.50;2.88;;;;;;;;;;5044539;28;20205;-67
2023/10/14 05:45:38;;;;;;;3.33;1.58;;;;;;;;;;5050227;28;20135;-68
2023/10/14 05:48:07;;;;;;;4.50;0.93;;;;;;;;;;5049943;28;20052;-69
2023/10/14 05:50:37;;;;;;;1.77;0.85;;;;;;;;;;5033795;28;20291;-70
2023/10/14 05:53:07;;;;;;;6.82;1.45;;;;;;;;;;5046334;28;20041;-70
2023/10/14 05:55:34;;;;;;;0.85;0.50;;;;;;;;;;5049488;28;20141;-71
2023/10/14 05:58:00;;;;;;;0.93;0.55;;;;;;;;;;5046928;28;20417;-70
2023/10/14 06:00:28;;;;;;;1.95;0.50;;;;;;;;;;5044422;28;20057;-71
2023/10/14 06:02:55;;;;;;;1.90;0.80;;;;;;;;;;5049647;28;20217;-71
2023/10/14 06:05:22;;;;;;;2.70;0.80;;;;;;;;;;5049782;28;20049;-70
2023/10/14 06:07:49;;;;;;;1.15;0.60;;;;;;;;;;5042599;28;20437;-70
2023/10/14 06:10:25;;;;;;;1.85;0.60;;;;;;;;;;5043377;28;20127;-68
2023/10/14 06:12:52;;;;;;;3.70;0.88;;;;;;;;;;5049547;28;20045;-68
2023/10/14 06:15:19;;;;;;;4.80;1.48;;;;;;;;;;5049570;28;20532;-69
2023/10/14 06:17:46;;;;;;;5.88;0.80;;;;;;;;;;5034496;28;20072;-70
2023/10/14 06:20:16;;;;;;;1.25;0.80;;;;;;;;;;5045632;28;20056;-73
2023/10/14 06:22:46;;;;;;;18.27;7.57;;;;;;;;;;5048955;28;20079;-71
2023/10/14 06:25:15;;;;;;;6.32;1.45;;;;;;;;;;5047457;28;20571;-73
2023/10/14 06:27:45;;;;;;;2.00;0.60;;;;;;;;;;5043920;28;20045;-71
2023/10/14 06:30:21;;;;;;;2.35;0.60;;;;;;;;;;5049105;28;20104;-71
2023/10/14 06:32:48;;;;;;;2.00;0.70;;;;;;;;;;5041194;28;20478;-72
2023/10/14 06:35:18;;;;;;;5.75;1.88;;;;;;;;;;5040448;28;20053;-71
2023/10/14 06:37:45;;;;;;;4.35;0.80;;;;;;;;;;5044344;28;20646;-71
2023/10/14 06:40:18;;;;;;;2.38;0.80;;;;;;;;;;5047653;28;20144;-68
2023/10/14 06:42:48;;;;;;;2.90;1.25;;;;;;;;;;5048993;28;20049;-68
2023/10/14 06:45:17;;;;;;;4.53;0.90;;;;;;;;;;5032533;28;20049;-70
2023/10/14 06:47:51;;;;;;;6.97;1.10;;;;;;;;;;5047198;28;20107;-70
2023/10/14 06:50:23;;;;;;;2.88;1.00;;;;;;;;;;5049072;28;20053;-70
2023/10/14 06:52:53;;;;;;;5.10;1.30;;;;;;;;;;5044227;28;20425;-70
2023/10/14 06:55:23;;;;;;;2.10;1.23;;;;;;;;;;5044913;28;20150;-70
2023/10/14 06:57:53;;;;;;;2.55;0.88;;;;;;;;;;5048746;28;20044;-70
2023/10/14 07:00:29;;;;;;;5.50;0.98;;;;;;;;;;5049011;28;20375;-71
2023/10/14 07:02:57;;;;;;;3.08;0.90;;;;;;;;;;5038643;28;20041;-71
2023/10/14 07:05:23;;;;;;;4.78;1.10;;;;;;;;;;5047317;28;20380;-70
2023/10/14 07:07:50;;;;;;;5.75;1.25;;;;;;;;;;5047702;28;20045;-71
2023/10/14 07:10:17;;;;;;;2.55;1.30;;;;;;;;;;5048285;28;20041;-71
2023/10/14 07:12:44;;;;;;;3.75;1.58;;;;;;;;;;5031909;28;20045;-71
2023/10/14 07:15:12;;;;;;;7.40;1.02;;;;;;;;;;5031827;28;20156;-71
2023/10/14 07:17:43;;;;;;;2.38;0.90;;;;;;;;;;5047022;28;20060;-71
2023/10/14 07:20:12;;;;;;;2.65;0.77;;;;;;;;;;5044180;28;20045;-71
2023/10/14 07:22:42;;;;;;;3.80;0.80;;;;;;;;;;5029193;28;20092;-70
2023/10/14 07:25:10;;;;;;;5.63;1.58;;;;;;;;;;5048006;28;20685;-70
2023/10/14 07:27:37;;;;;;;7.38;1.20;;;;;;;;;;5048151;28;20045;-71
2023/10/14 07:30:13;;;;;;;6.95;2.03;;;;;;;;;;5039579;28;20128;-71
2023/10/14 07:32:44;;;;;;;5.25;1.17;;;;;;;;;;5035928;28;20238;-71
2023/10/14 07:35:15;;;;;;;4.32;1.00;;;;;;;;;;5046446;28;20137;-70
2023/10/14 07:37:43;;;;;;;5.78;1.65;;;;;;;;;;5048121;28;20710;-72
2023/10/14 07:40:31;;;;;;;5.25;1.00;;;;;;;;;;5033154;28;20146;-72
2023/10/14 07:43:10;;;;;;;3.13;0.95;;;;;;;;;;5049959;28;20048;-72
2023/10/14 07:45:43;;;;;;;11.45;2.38;;;;;;;;;;5047901;28;20394;-71
2023/10/14 07:48:11;;;;;;;6.28;1.27;;;;;;;;;;5038637;28;20060;-72
2023/10/14 07:50:42;;;;;;;4.97;1.45;;;;;;;;;;5032615;28;20049;-72
2023/10/14 07:53:13;;;;;;;4.03;1.15;;;;;;;;;;5046888;28;20120;-72
2023/10/14 07:55:39;;;;;;;4.53;1.15;;;;;;;;;;5048045;28;20040;-72
2023/10/14 07:58:08;;;;;;;10.50;1.73;;;;;;;;;;5037693;28;20561;-72
2023/10/14 08:00:38;;;;;;;4.93;1.38;;;;;;;;;;5047159;28;20053;-73
2023/10/14 08:03:06;;;;;;;5.95;1.42;;;;;;;;;;5047254;28;20045;-72
2023/10/14 08:05:38;;;;;;;6.05;1.73;;;;;;;;;;5045455;28;20045;-72
2023/10/14 08:08:06;;;;;;;7.80;1.10;;;;;;;;;;5034868;28;20110;-72
2023/10/14 08:10:33;;;;;;;6.78;1.40;;;;;;;;;;5047816;28;20140;-72
2023/10/14 08:13:04;;;;;;;3.85;1.10;;;;;;;;;;5047653;28;20428;-73
2023/10/14 08:15:31;;;;;;;9.75;1.15;;;;;;;;;;5041407;28;20094;-73
2023/10/14 08:17:58;;;;;;;8.73;1.48;;;;;;;;;;5037938;28;20111;-72
2023/10/14 08:20:27;;;;;;;11.52;1.73;;;;;;;;;;5050815;28;20045;-73
2023/10/14 08:22:54;;;;;;;11.07;1.75;;;;;;;;;;5051686;28;20053;-70
2023/10/14 08:25:24;;;;;;;5.60;1.65;;;;;;;;;;5041559;28;20045;-71
2023/10/14 08:27:52;;;;;;;6.95;1.30;;;;;;;;;;5050648;28;20051;-71
2023/10/14 08:30:19;;;;;;;7.75;1.27;;;;;;;;;;5038323;28;20084;-72
2023/10/14 08:32:48;;;;;;;7.38;1.35;;;;;;;;;;5041410;28;20045;-72
2023/10/14 08:35:15;;;;;;;9.90;1.30;;;;;;;;;;5038570;28;20057;-71
2023/10/14 08:37:48;;;;;;;6.47;1.52;;;;;;;;;;5038892;28;20107;-73
2023/10/14 08:40:19;;;;;;;7.50;1.35;;;;;;;;;;5041202;28;20052;-71
2023/10/14 08:42:50;;;;;;;13.88;1.60;;;;;;;;;;5041218;28;20070;-72
2023/10/14 08:45:17;;;;;;;5.60;1.43;;;;;;;;;;5032425;28;20064;-72
2023/10/14 08:47:45;;;;;;;9.48;2.47;;;;;;;;;;5036497;28;20835;-72
2023/10/14 08:50:15;;;;;;;9.45;1.80;;;;;;;;;;5038331;28;20056;-72
2023/10/14 08:52:45;;;;;;;7.57;1.60;;;;;;;;;;5034833;28;20119;-72
2023/10/14 08:55:15;;;;;;;15.07;1.92;;;;;;;;;;5034056;28;20041;-71
2023/10/14 08:57:45;;;;;;;13.50;1.60;;;;;;;;;;5034632;28;20045;-72
2023/10/14 09:00:18;;;;;;;5.63;1.75;;;;;;;;;;5036031;28;20129;-72
2023/10/14 09:02:48;;;;;;;10.05;2.38;;;;;;;;;;5034680;28;20126;-72
2023/10/14 09:05:16;;;;;;;10.33;1.80;;;;;;;;;;5036002;28;20045;-76
2023/10/14 09:07:45;;;;;;;12.18;2.40;;;;;;;;;;5028938;28;90211;-75
2023/10/14 09:10:11;;;;;;;11.20;1.50;;;;;;;;;;5041928;28;20045;-75
2023/10/14 09:12:39;;;;;;;6.88;1.42;;;;;;;;;;5048795;28;20047;-73
2023/10/14 09:15:06;;;;;;;7.63;1.50;;;;;;;;;;5046559;28;20863;-75
2023/10/14 09:17:33;;;;;;;13.55;2.55;;;;;;;;;;5031789;28;20053;-71
2023/10/14 09:19:59;;;;;;;10.45;1.67;;;;;;;;;;5031292;28;20655;-73
2023/10/14 09:22:26;;;;;;;19.80;1.98;;;;;;;;;;5039561;28;20103;-73
2023/10/14 09:24:55;;;;;;;9.95;2.15;;;;;;;;;;5033858;28;20045;-72
2023/10/14 09:27:22;;;;;;;16.70;1.73;;;;;;;;;;5040359;28;20049;-73
2023/10/14 09:29:48;;;;;;;10.65;2.15;;;;;;;;;;5038902;28;20046;-72
2023/10/14 09:32:17;;;;;;;16.23;1.67;;;;;;;;;;5045816;28;20049;-71
2023/10/14 09:34:44;;;;;;;12.40;1.92;;;;;;;;;;5038770;28;20104;-71
2023/10/14 09:37:10;;;;;;;10.75;2.13;;;;;;;;;;5041221;28;20130;-71
2023/10/14 09:39:39;;;;;;;12.38;1.38;;;;;;;;;;5043317;28;20442;-73
2023/10/14 09:42:10;;;;;;;7.38;1.83;;;;;;;;;;5037955;28;20049;-72
2023/10/14 09:44:42;;;;;;;6.78;1.80;;;;;;;;;;5040923;28;20053;-73
2023/10/14 09:47:14;;;;;;;7.25;1.83;;;;;;;;;;5038086;28;20547;-74
2023/10/14 09:49:41;;;;;;;10.10;1.42;;;;;;;;;;5040667;28;20060;-71
2023/10/14 09:52:14;;;;;;;13.98;2.13;;;;;;;;;;5035465;28;20042;-72
2023/10/14 09:54:41;;;;;;;12.40;1.92;;;;;;;;;;5034824;28;20045;-73
2023/10/14 09:57:12;;;;;;;11.02;2.28;;;;;;;;;;5032648;28;20469;-73
2023/10/14 09:59:41;;;;;;;8.93;1.33;;;;;;;;;;5032395;28;20107;-73
2023/10/14 10:02:10;;;;;;;13.55;1.88;;;;;;;;;;5033146;28;20045;-72
2023/10/14 10:04:42;;;;;;;11.38;1.52;;;;;;;;;;5031516;28;20080;-72
2023/10/14 10:07:11;;;;;;;8.68;2.65;;;;;;;;;;5030266;28;20482;-71
2023/10/14 10:09:41;;;;;;;7.70;1.80;;;;;;;;;;5033166;28;20045;-72
2023/10/14 10:12:10;;;;;;;8.98;1.77;;;;;;;;;;5037619;28;20053;-72
2023/10/14 10:14:42;;;;;;;10.63;1.98;;;;;;;;;;5042719;28;20041;-72
2023/10/14 10:17:11;;;;;;;14.15;1.50;;;;;;;;;;5031388;28;20057;-71
2023/10/14 10:19:56;;;;;;;7.47;1.55;;;;;;;;;;5033709;28;20046;-72
2023/10/14 10:22:23;;;;;;;13.10;2.20;;;;;;;;;;5031545;28;20049;-72
2023/10/14 10:24:49;;;;;;;8.90;1.73;;;;;;;;;;5030753;28;20045;-73
2023/10/14 10:27:16;;;;;;;11.68;2.17;;;;;;;;;;5031019;28;20147;-72
2023/10/14 10:29:51;;;;;;;7.05;1.05;;;;;;;;;;5030590;28;20045;-72
2023/10/14 10:32:18;;;;;;;13.93;1.40;;;;;;;;;;5044513;28;20056;-71
2023/10/14 10:35:06;;;;;;;5.93;1.87;;;;;;;;;;5040649;28;20457;-71
2023/10/14 10:37:33;;;;;;;9.10;1.45;;;;;;;;;;5036578;28;20068;-71
2023/10/14 10:40:04;;;;;;;13.50;2.63;;;;;;;;;;5046974;28;20146;-71
2023/10/14 10:42:31;;;;;;;10.13;1.92;;;;;;;;;;5045403;28;20350;-71
2023/10/14 10:44:58;;;;;;;8.32;1.48;;;;;;;;;;5045667;28;20049;-71
2023/10/14 10:47:29;;;;;;;13.48;1.90;;;;;;;;;;5042240;28;20185;-71
2023/10/14 10:49:59;;;;;;;11.85;1.50;;;;;;;;;;5044475;28;20051;-70
2023/10/14 10:52:27;;;;;;;13.40;2.05;;;;;;;;;;5044813;28;20064;-71
2023/10/14 10:54:57;;;;;;;19.63;1.90;;;;;;;;;;5042331;28;20048;-72
2023/10/14 10:57:24;;;;;;;17.35;3.03;;;;;;;;;;5039170;28;20478;-71
2023/10/14 10:59:51;;;;;;;6.30;1.63;;;;;;;;;;5030756;28;20524;-71
2023/10/14 11:02:19;;;;;;;8.82;1.38;;;;;;;;;;5041780;28;20082;-71
2023/10/14 11:04:48;;;;;;;10.05;1.58;;;;;;;;;;5038113;28;20052;-71
2023/10/14 11:07:14;;;;;;;8.02;2.33;;;;;;;;;;5028671;28;20133;-71
2023/10/14 11:09:41;;;;;;;12.30;2.10;;;;;;;;;;5028628;28;20054;-71
2023/10/14 11:12:09;;;;;;;22.98;1.95;;;;;;;;;;5027567;28;20482;-70
2023/10/14 11:14:36;;;;;;;9.23;2.35;;;;;;;;;;5040656;28;20057;-71
2023/10/14 11:17:04;;;;;;;13.35;3.05;;;;;;;;;;5029688;28;20658;-70
2023/10/14 11:19:32;;;;;;;8.25;1.98;;;;;;;;;;5041574;28;20128;-72
2023/10/14 11:22:02;;;;;;;9.18;1.77;;;;;;;;;;5031544;28;20049;-72
2023/10/14 11:24:32;;;;;;;9.00;1.88;;;;;;;;;;5031446;28;20059;-72
2023/10/14 11:27:01;;;;;;;8.25;1.60;;;;;;;;;;5032282;28;20490;-71
2023/10/14 11:29:28;;;;;;;10.38;1.90;;;;;;;;;;5047970;28;20658;-72
2023/10/14 11:31:57;;;;;;;10.40;1.33;;;;;;;;;;5034078;28;20045;-71
2023/10/14 11:34:24;;;;;;;7.85;1.20;;;;;;;;;;5036861;28;20053;-72
2023/10/14 11:36:51;;;;;;;6.57;1.33;;;;;;;;;;5045217;28;20052;-71
2023/10/14 11:39:20;;;;;;;12.95;1.38;;;;;;;;;;5041554;28;20137;-73
2023/10/14 11:41:50;;;;;;;10.88;1.70;;;;;;;;;;5029203;28;20113;-74
2023/10/14 11:44:17;;;;;;;4.82;0.95;;;;;;;;;;5035438;28;20088;-71
2023/10/14 11:46:44;;;;;;;16.10;2.13;;;;;;;;;;5036186;28;20056;-71
2023/10/14 11:49:12;;;;;;;14.50;1.92;;;;;;;;;;5037188;28;20080;-71
2023/10/14 11:51:42;;;;;;;9.40;0.95;;;;;;;;;;5034321;28;20090;-71
2023/10/14 11:54:12;;;;;;;7.03;2.22;;;;;;;;;;5032714;28;20096;-70
2023/10/14 11:56:42;;;;;;;10.40;1.00;;;;;;;;;;5033863;28;20115;-71
2023/10/14 11:59:09;;;;;;;9.60;1.77;;;;;;;;;;5035230;28;20041;-71
2023/10/14 12:01:35;;;;;;;15.25;1.83;;;;;;;;;;5031953;28;20128;-71
2023/10/14 12:04:02;;;;;;;7.47;1.90;;;;;;;;;;5031277;28;20377;-71
2023/10/14 12:06:30;;;;;;;15.45;2.83;;;;;;;;;;5031089;28;20454;-71
2023/10/14 12:08:57;;;;;;;12.68;1.85;;;;;;;;;;5029546;28;20052;-71
2023/10/14 12:11:24;;;;;;;9.73;2.03;;;;;;;;;;5027955;28;20057;-72
2023/10/14 12:13:51;;;;;;;12.27;1.90;;;;;;;;;;5028613;28;20417;-71
2023/10/14 12:16:18;;;;;;;17.23;2.38;;;;;;;;;;5029854;28;20149;-71
2023/10/14 12:18:54;;;;;;;7.68;2.25;;;;;;;;;;5034289;28;20056;-71
2023/10/14 12:21:22;;;;;;;9.68;2.08;;;;;;;;;;5029939;28;20053;-72
2023/10/14 12:23:48;;;;;;;13.75;2.10;;;;;;;;;;5027419;28;20050;-72
2023/10/14 12:26:15;;;;;;;9.35;2.20;;;;;;;;;;5027383;28;20061;-71
2023/10/14 12:28:44;;;;;;;7.70;1.95;;;;;;;;;;5027223;28;20060;-72
2023/10/14 12:31:12;;;;;;;11.82;1.30;;;;;;;;;;5034154;28;20046;-70
2023/10/14 12:33:41;;;;;;;9.13;1.50;;;;;;;;;;5044429;28;20068;-70
2023/10/14 12:36:11;;;;;;;7.03;1.05;;;;;;;;;;5029044;28;20053;-71
2023/10/14 12:38:42;;;;;;;7.97;1.02;;;;;;;;;;5031513;28;20359;-73
2023/10/14 12:41:13;;;;;;;12.38;1.75;;;;;;;;;;5030518;28;20076;-71
2023/10/14 12:43:40;;;;;;;15.90;2.30;;;;;;;;;;5031285;28;20049;-73
2023/10/14 12:46:12;;;;;;;8.95;1.88;;;;;;;;;;5033859;28;20473;-71
2023/10/14 12:48:39;;;;;;;9.35;2.25;;;;;;;;;;5033664;28;20490;-70
2023/10/14 12:51:08;;;;;;;7.15;1.50;;;;;;;;;;5033076;28;20128;-71
2023/10/14 12:53:34;;;;;;;8.13;1.38;;;;;;;;;;5026954;28;20112;-71
2023/10/14 12:56:01;;;;;;;7.68;1.48;;;;;;;;;;5035294;28;20673;-71
2023/10/14 12:58:28;;;;;;;6.90;1.00;;;;;;;;;;5036536;28;20050;-71
2023/10/14 13:00:56;;;;;;;13.95;3.42;;;;;;;;;;5040418;28;20047;-71
2023/10/14 13:03:23;;;;;;;9.68;1.65;;;;;;;;;;5041153;28;20045;-71
2023/10/14 13:05:52;;;;;;;11.45;1.40;;;;;;;;;;5037552;28;20430;-71
2023/10/14 13:08:19;;;;;;;9.35;1.45;;;;;;;;;;5043052;28;20430;-69
2023/10/14 13:10:46;;;;;;;10.18;1.88;;;;;;;;;;5040731;28;20079;-71
2023/10/14 13:13:13;;;;;;;15.73;1.70;;;;;;;;;;5041971;28;20490;-71
2023/10/14 13:15:40;;;;;;;10.80;2.03;;;;;;;;;;5044515;28;20053;-71
2023/10/14 13:18:07;;;;;;;10.82;2.28;;;;;;;;;;5045173;28;20088;-70
2023/10/14 13:20:34;;;;;;;6.70;1.75;;;;;;;;;;5043942;28;20045;-69
2023/10/14 13:23:11;;;;;;;17.40;3.50;;;;;;;;;;5044288;28;20106;-71
2023/10/14 13:25:38;;;;;;;7.00;1.35;;;;;;;;;;5046678;28;20045;-71
2023/10/14 13:28:08;;;;;;;12.63;1.83;;;;;;;;;;5047552;28;20056;-70
2023/10/14 13:30:35;;;;;;;14.18;3.20;;;;;;;;;;5035199;28;20110;-71
2023/10/14 13:33:03;;;;;;;8.68;2.03;;;;;;;;;;5043367;28;20254;-72
2023/10/14 13:35:31;;;;;;;5.93;1.73;;;;;;;;;;5030480;28;20552;-70
2023/10/14 13:37:57;;;;;;;8.82;2.63;;;;;;;;;;5030132;28;20552;-70
2023/10/14 13:40:24;;;;;;;10.95;3.08;;;;;;;;;;5045478;28;20057;-71
2023/10/14 13:43:08;;;;;;;9.85;2.28;;;;;;;;;;5048289;28;20401;-71
2023/10/14 13:45:40;;;;;;;7.57;1.55;;;;;;;;;;5041780;28;20076;-70
2023/10/14 13:48:07;;;;;;;13.00;2.25;;;;;;;;;;5039723;28;20049;-71
2023/10/14 13:50:41;;;;;;;8.27;1.42;;;;;;;;;;5044472;28;20055;-70
2023/10/14 13:53:09;;;;;;;11.15;3.72;;;;;;;;;;5041068;28;20586;-71
2023/10/14 13:55:39;;;;;;;11.52;2.08;;;;;;;;;;5046024;28;20055;-73
2023/10/14 13:58:06;;;;;;;6.68;1.38;;;;;;;;;;5043247;28;20131;-71
2023/10/14 14:00:36;;;;;;;6.50;1.88;;;;;;;;;;5030624;28;20049;-71
2023/10/14 14:03:05;;;;;;;7.72;1.20;;;;;;;;;;5044027;28;20124;-72
2023/10/14 14:05:32;;;;;;;8.63;1.60;;;;;;;;;;5047011;28;20051;-71
2023/10/14 14:07:58;;;;;;;11.70;1.60;;;;;;;;;;5039893;28;20132;-72
2023/10/14 14:10:25;;;;;;;6.72;1.00;;;;;;;;;;5038854;28;20046;-73
2023/10/14 14:12:55;;;;;;;10.55;1.35;;;;;;;;;;5043193;28;20486;-72
2023/10/14 14:15:22;;;;;;;9.10;2.53;;;;;;;;;;5042389;28;20071;-72
2023/10/14 14:17:49;;;;;;;8.13;1.42;;;;;;;;;;5029743;28;20127;-74
2023/10/14 14:20:16;;;;;;;9.27;1.50;;;;;;;;;;5029451;28;20084;-73
2023/10/14 14:22:44;;;;;;;12.55;1.75;;;;;;;;;;5027973;28;20053;-72
2023/10/14 14:25:12;;;;;;;5.65;1.58;;;;;;;;;;5030458;28;20136;-72
2023/10/14 14:27:39;;;;;;;7.32;1.45;;;;;;;;;;5029775;28;20049;-71
2023/10/14 14:30:08;;;;;;;6.93;2.08;;;;;;;;;;5029401;28;20041;-71
2023/10/14 14:32:38;;;;;;;6.93;1.25;;;;;;;;;;5036496;28;20080;-71
2023/10/14 14:35:09;;;;;;;10.68;1.75;;;;;;;;;;5030611;28;20133;-73
2023/10/14 14:37:36;;;;;;;7.80;1.80;;;;;;;;;;5030277;28;20037;-72
2023/10/14 14:40:11;;;;;;;9.10;1.45;;;;;;;;;;5040379;28;20041;-72
2023/10/14 14:42:42;;;;;;;7.50;1.40;;;;;;;;;;5032436;28;20048;-72
2023/10/14 14:45:24;;;;;;;5.85;1.20;;;;;;;;;;5029892;28;20121;-71
2023/10/14 14:47:52;;;;;;;10.40;1.73;;;;;;;;;;5029049;28;20045;-72
2023/10/14 14:50:19;;;;;;;12.18;1.77;;;;;;;;;;5040190;28;20045;-72
2023/10/14 14:52:47;;;;;;;7.72;1.20;;;;;;;;;;5029307;28;20048;-72
2023/10/14 14:55:14;;;;;;;11.60;2.10;;;;;;;;;;5028598;28;20496;-74
2023/10/14 14:57:44;;;;;;;10.57;2.22;;;;;;;;;;5028077;28;20481;-72
2023/10/14 15:00:14;;;;;;;5.82;1.98;;;;;;;;;;5044221;28;20059;-71
2023/10/14 15:02:42;;;;;;;12.30;2.47;;;;;;;;;;5048317;28;20048;-70
2023/10/14 15:05:10;;;;;;;9.10;2.22;;;;;;;;;;5048025;28;20052;-71
2023/10/14 15:07:36;;;;;;;10.48;2.05;;;;;;;;;;5042286;28;20157;-71
2023/10/14 15:10:04;;;;;;;14.40;2.25;;;;;;;;;;5031277;28;20091;-73
2023/10/14 15:12:34;;;;;;;15.55;2.25;;;;;;;;;;5031394;28;20076;-73
2023/10/14 15:15:02;;;;;;;7.32;2.05;;;;;;;;;;5028266;28;20054;-72
2023/10/14 15:17:29;;;;;;;12.77;1.98;;;;;;;;;;5027983;28;20077;-73
2023/10/14 15:19:56;;;;;;;10.02;1.58;;;;;;;;;;5044602;28;20076;-73
2023/10/14 15:22:23;;;;;;;11.23;1.73;;;;;;;;;;5046367;28;20080;-71
2023/10/14 15:24:51;;;;;;;6.63;1.73;;;;;;;;;;5045846;28;20110;-73
2023/10/14 15:27:18;;;;;;;3.55;1.00;;;;;;;;;;5043009;28;20052;-71
2023/10/14 15:29:48;;;;;;;11.48;2.35;;;;;;;;;;5041254;28;20049;-71